Aeroporto :
LOGIN :

Iscrizione | Disclaimer

   EN    FR    IT 

 










Sommario :    VFR   VFR Marginale   IFR   IFR Intensivo   IFR Molto Intensivo
Visibilità : 
Base nubi : 
>= 8 km
>= 3000ft
5 / 8 km
1000 / 3000 ft
1500m / 5 km
500 / 1000 ft
800 / 1500m
200 / 500 ft
< 800m
< 200 ft
Simboli :   Temporali  Nebbia  Neve Forte  Precipitazioni Forti  Vento > 20 kt
SIGMETs :   Varie  Temporali  Ghiacco  Turbolenza  Onda orograficha  Ceneri Vulcaniche







- Altitudine del aeroporto : 1708 ft
- Codice IATA : SJJ


LQSA - Sarajevo

ULTIMO METAR :
  • 170630Z VRB01KT 9999 SCT040 17/15 Q1019 NOSIG

METARs OBSOLETI :
  • 170600Z VRB02KT 9999 SCT040 16/14 Q1019 NOSIG
  • 170530Z 31004KT 280V010 9999 BKN040 16/14 Q1019 NOSIG
  • 170500Z VRB02KT 9999 SCT040 BKN065 16/14 Q1019 NOSIG
  • 170430Z VRB02KT 9999 SCT035 15/14 Q1019 NOSIG
  • 170400Z VRB02KT 9999 FEW035 15/13 Q1019 NOSIG

TAF TAF LQSA
Valido dal 17 a 06 ore il 18 a 06 ore UTC


170500Z 1706/1806 30005KT 9999 BKN040 TX22/1713Z TN14/1803Z
TEMPO 1712/1721 VRB12KT TS SCT035CB SCT050
TEMPO 1712/1723 3000 SHRA
TEMPO 1800/1806 3000 BR BKN008
Nessun NOTAM noto per questo aeroporto.



MetMap, La meteo Aeronautica in un colpo d'occhio ! - Copyright ORBIFLY Dicembre 2007 - Disclaimer

ORBIFLY MET'MAP TEAM :

Programmazione e sviluppo : Alexandra Zaïnal
Concezione e sviluppo : Baudouin d'Aumeries
Co-Programmazione e sviluppo : Marc-Olivier Méhu
Supporto tecnico e logistico : Manuel Goepfert
Aiuto per la traduzione : Arnaldo La Scala

Contatto : metmap@orbifly.com




FONTI E CREDITI :

   NOAA